Time;durP1;ratioP1;P1;durP2;ratioP2;P2;SDS_P1;SDS_P2;PMS_P1;PMS_P2;Temp;Humidity;BMP_temperature;BMP_pressure;BME280_temperature;BME280_humidity;BME280_pressure;Samples;Min_cycle;Max_cycle;Signal;HPM_P1;HPM_P2
2022/10/02 00:01:18;;;;;;;;;3.67;3.67;;;;;18.61;100.00;101599.47;5051144;28;45401;-70
2022/10/02 00:03:44;;;;;;;;;2.33;2.33;;;;;18.62;100.00;101598.56;5053304;28;45417;-71
2022/10/02 00:06:23;;;;;;;;;3.00;2.00;;;;;18.64;100.00;101611.91;5056111;28;46812;-69
2022/10/02 00:08:57;;;;;;;;;2.67;2.00;;;;;18.64;100.00;101614.59;5047106;28;45508;-71
2022/10/02 00:11:27;;;;;;;;;4.33;2.00;;;;;18.61;100.00;101611.97;5056401;28;45572;-71
2022/10/02 00:13:58;;;;;;;;;2.67;1.33;;;;;18.61;100.00;101615.50;5057088;28;45478;-71
2022/10/02 00:16:28;;;;;;;;;8.67;3.00;;;;;18.61;100.00;101623.53;5045643;28;46540;-70
2022/10/02 00:18:55;;;;;;;;;2.00;1.00;;;;;18.57;100.00;101625.34;5050536;28;45453;-70
2022/10/02 00:21:39;;;;;;;;;3.00;1.33;;;;;18.58;100.00;101627.13;5055438;28;45359;-70
2022/10/02 00:24:07;;;;;;;;;2.33;1.33;;;;;18.55;100.00;101627.16;5051956;28;45350;-71
2022/10/02 00:26:40;;;;;;;;;2.00;2.00;;;;;18.52;100.00;101619.16;5054395;28;46549;-71
2022/10/02 00:29:31;;;;;;;;;2.00;2.00;;;;;18.54;100.00;101625.41;5049812;28;45501;-70
2022/10/02 00:32:29;;;;;;;;;3.33;3.00;;;;;18.55;100.00;101626.28;5056585;28;45258;-70
2022/10/02 00:35:19;;;;;;;;;3.33;2.00;;;;;18.54;100.00;101621.84;5049269;28;45359;-70
2022/10/02 00:40:24;;;;;;;;;3.00;1.67;;;;;18.54;100.00;101622.72;5230840;22;71610;-70
2022/10/02 00:43:43;;;;;;;;;5.33;0.67;;;;;18.55;100.00;101628.94;5054554;28;45541;-71
2022/10/02 00:46:21;;;;;;;;;4.67;2.00;;;;;18.55;100.00;101629.84;5005309;28;45385;-70
2022/10/02 00:48:59;;;;;;;;;3.33;2.00;;;;;18.54;100.00;101632.53;5010308;28;46348;-71
2022/10/02 00:51:27;;;;;;;;;2.67;2.67;;;;;18.53;100.00;101636.09;5040926;28;45450;-71
2022/10/02 00:54:27;;;;;;;;;3.00;1.33;;;;;18.54;100.00;101643.22;5055251;28;45364;-69
2022/10/02 00:57:25;;;;;;;;;3.00;3.00;;;;;18.54;100.00;101638.75;5055955;28;45708;-70
2022/10/02 00:59:53;;;;;;;;;2.00;2.00;;;;;18.53;100.00;101642.31;5055762;28;45994;-70
2022/10/02 01:02:30;;;;;;;;;2.67;1.33;;;;;18.51;100.00;101636.09;5056243;28;45447;-70
2022/10/02 01:04:57;;;;;;;;;1.33;1.33;;;;;18.52;100.00;101639.66;5054148;28;45249;-70
2022/10/02 01:07:23;;;;;;;;;4.67;3.00;;;;;18.54;100.00;101629.84;5054716;28;45520;-70
2022/10/02 01:09:48;;;;;;;;;4.00;3.00;;;;;18.53;100.00;101623.59;5054762;28;68236;-70
2022/10/02 01:12:14;;;;;;;;;2.00;2.00;;;;;18.56;100.00;101628.03;5054504;28;45682;-70
2022/10/02 01:14:40;;;;;;;;;3.33;1.33;;;;;18.58;100.00;101629.78;5056096;28;45495;-71
2022/10/02 01:17:27;;;;;;;;;1.00;1.00;;;;;18.59;100.00;101628.03;5055190;28;45134;-70
2022/10/02 01:19:53;;;;;;;;;3.33;1.33;;;;;18.55;100.00;101623.59;5052513;28;45469;-70
2022/10/02 01:22:22;;;;;;;;;1.33;1.33;;;;;18.56;100.00;101630.72;5054864;28;45512;-70
2022/10/02 01:24:49;;;;;;;;;2.33;2.33;;;;;18.52;100.00;101632.53;5055975;28;45366;-70
2022/10/02 01:27:14;;;;;;;;;4.00;2.00;;;;;18.50;100.00;101622.75;5054249;28;45534;-70
2022/10/02 01:29:42;;;;;;;;;2.00;2.00;;;;;18.46;100.00;101629.03;5054450;28;46494;-71
2022/10/02 01:32:08;;;;;;;;;3.00;2.00;;;;;18.46;100.00;101621.88;5053618;28;45500;-71
2022/10/02 01:34:34;;;;;;;;;2.00;2.00;;;;;18.41;100.00;101620.16;5055887;28;45509;-70
2022/10/02 01:36:59;;;;;;;;;4.33;3.00;;;;;18.40;100.00;101619.28;5054931;28;65661;-71
2022/10/02 01:39:25;;;;;;;;;4.00;2.00;;;;;18.40;100.00;101623.72;5057542;28;70770;-70
2022/10/02 01:41:51;;;;;;;;;2.00;2.00;;;;;18.38;100.00;101630.91;5059256;28;45345;-71
2022/10/02 01:44:16;;;;;;;;;3.00;3.00;;;;;18.37;100.00;101619.28;5058152;28;62659;-70
2022/10/02 01:47:02;;;;;;;;;3.33;2.00;;;;;18.37;100.00;101624.63;5059162;28;45551;-70
2022/10/02 01:50:01;;;;;;;;;1.00;1.00;;;;;18.38;100.00;101620.19;5057285;28;46773;-70
2022/10/02 01:52:32;;;;;;;;;2.00;2.00;;;;;18.39;100.00;101620.19;5057325;28;45560;-70
2022/10/02 01:54:57;;;;;;;;;2.00;2.00;;;;;18.39;100.00;101621.97;5059110;28;45461;-70
2022/10/02 01:58:00;;;;;;;;;2.00;2.00;;;;;18.41;100.00;101614.81;5057967;28;45462;-71
2022/10/02 02:00:30;;;;;;;;;3.33;1.33;;;;;18.40;100.00;101607.69;5058284;28;46002;-70
2022/10/02 02:03:23;;;;;;;;;2.67;2.67;;;;;18.41;100.00;101610.34;5057705;28;45329;-70
2022/10/02 02:06:07;;;;;;;;;2.00;2.00;;;;;18.42;100.00;101612.09;5030620;28;45273;-70
2022/10/02 02:09:06;;;;;;;;;2.33;1.67;;;;;18.43;100.00;101604.97;5058926;28;45587;-71
2022/10/02 02:11:33;;;;;;;;;3.33;3.33;;;;;18.41;100.00;101604.09;5050825;28;47696;-70
2022/10/02 02:14:02;;;;;;;;;2.00;2.00;;;;;18.46;100.00;101604.97;5057010;28;45372;-70
2022/10/02 02:16:40;;;;;;;;;1.00;1.00;;;;;18.45;100.00;101604.06;5058483;28;45422;-69
2022/10/02 02:19:20;;;;;;;;;2.33;1.67;;;;;18.47;100.00;101609.41;5058297;28;45616;-70
2022/10/02 02:21:59;;;;;;;;;3.00;3.00;;;;;18.43;100.00;101599.63;5056544;28;45996;-70
2022/10/02 02:24:35;;;;;;;;;3.00;2.00;;;;;18.42;100.00;101595.19;5057773;28;45489;-70
2022/10/02 02:27:01;;;;;;;;;2.33;1.67;;;;;18.41;100.00;101596.97;5056538;28;45172;-70
2022/10/02 02:29:30;;;;;;;;;0.33;0.33;;;;;18.44;100.00;101596.06;5057372;28;45533;-70
2022/10/02 02:31:57;;;;;;;;;2.67;2.00;;;;;18.46;100.00;101595.13;5057619;28;46494;-70
2022/10/02 02:34:29;;;;;;;;;1.00;1.00;;;;;18.41;100.00;101580.03;5056573;28;45187;-69
2022/10/02 02:36:56;;;;;;;;;3.00;1.00;;;;;18.40;100.00;101581.84;5057384;28;45481;-71
2022/10/02 02:39:33;;;;;;;;;2.00;2.00;;;;;18.42;100.00;101577.34;5069470;27;45793;-70
2022/10/02 02:42:02;;;;;;;;;3.00;2.00;;;;;18.41;100.00;101577.38;5081011;27;45529;-70
2022/10/02 02:44:36;;;;;;;;;2.00;1.00;;;;;18.44;100.00;101585.38;5090820;27;45189;-71
2022/10/02 02:47:11;;;;;;;;;1.00;1.00;;;;;18.42;100.00;101565.75;5098652;27;45354;-70
2022/10/02 02:49:51;;;;;;;;;1.00;1.00;;;;;18.43;100.00;101564.84;5094374;27;45832;-70
2022/10/02 02:52:21;;;;;;;;;1.33;1.00;;;;;18.42;100.00;101563.09;5083980;27;46240;-69
2022/10/02 02:55:10;;;;;;;;;1.33;1.33;;;;;18.42;100.00;101558.63;5102972;27;45464;-71
2022/10/02 02:57:50;;;;;;;;;2.00;1.00;;;;;18.45;100.00;101557.72;5098262;27;45370;-70
2022/10/02 03:00:16;;;;;;;;;1.33;1.00;;;;;18.42;100.00;101550.59;5080667;27;45236;-71
2022/10/02 03:02:41;;;;;;;;;1.00;1.00;;;;;18.44;100.00;101548.81;5098089;27;46648;-69
2022/10/02 03:05:12;;;;;;;;;3.00;1.33;;;;;18.46;100.00;101547.00;5081184;27;70125;-71
2022/10/02 03:07:38;;;;;;;;;1.00;1.00;;;;;18.49;100.00;101554.13;5096434;27;45372;-71
2022/10/02 03:10:10;;;;;;;;;4.00;1.00;;;;;18.47;100.00;101546.09;5087593;27;49990;-70
2022/10/02 03:12:51;;;;;;;;;0.67;0.67;;;;;18.50;100.00;101550.53;5079338;27;46820;-70
2022/10/02 03:15:28;;;;;;;;;1.67;1.00;;;;;18.50;100.00;101546.09;5079620;27;45244;-70
2022/10/02 03:18:19;;;;;;;;;1.00;1.00;;;;;18.49;100.00;101543.44;5081837;27;45922;-70
2022/10/02 03:20:56;;;;;;;;;4.00;1.00;;;;;18.52;100.00;101549.63;5098130;27;45461;-70
2022/10/02 03:23:30;;;;;;;;;2.00;2.00;;;;;18.48;100.00;101541.63;5079755;27;46923;-70
2022/10/02 03:26:02;;;;;;;;;1.00;1.00;;;;;18.53;100.00;101546.03;5074243;27;46787;-70
2022/10/02 03:28:30;;;;;;;;;1.00;1.00;;;;;18.53;100.00;101537.13;5099591;27;45478;-70
2022/10/02 03:30:56;;;;;;;;;1.00;1.00;;;;;18.51;100.00;101530.91;5097597;27;45528;-70
2022/10/02 03:33:22;;;;;;;;;1.00;1.00;;;;;18.53;100.00;101531.78;5079843;27;46400;-71
2022/10/02 03:35:49;;;;;;;;;1.00;1.00;;;;;18.54;100.00;101537.13;5096877;27;65879;-70
2022/10/02 03:38:16;;;;;;;;;0.00;0.00;;;;;18.54;100.00;101536.25;5097641;27;45357;-70
2022/10/02 03:40:41;;;;;;;;;0.00;0.00;;;;;18.56;100.00;101539.78;5081449;27;56414;-70
2022/10/02 03:43:08;;;;;;;;;0.00;0.00;;;;;18.56;100.00;101539.78;5097110;27;55989;-70
2022/10/02 03:45:33;;;;;;;;;1.33;0.33;;;;;18.57;100.00;101542.44;5079278;27;45479;-71
2022/10/02 03:47:59;;;;;;;;;0.33;0.33;;;;;18.55;100.00;101525.53;5079701;27;46061;-70
2022/10/02 03:50:24;;;;;;;;;2.00;0.33;;;;;18.57;100.00;101530.84;5097466;27;45398;-70
2022/10/02 03:52:51;;;;;;;;;0.00;0.00;;;;;18.58;100.00;101540.63;5082190;27;69969;-70
2022/10/02 03:55:33;;;;;;;;;0.00;0.00;;;;;18.62;100.00;101541.50;5097749;27;45303;-70
2022/10/02 03:58:01;;;;;;;;;0.33;0.00;;;;;18.58;100.00;101530.81;5080207;27;45311;-71
2022/10/02 04:00:35;;;;;;;;;0.00;0.00;;;;;18.62;100.00;101541.50;5078400;27;45590;-71
2022/10/02 04:03:06;;;;;;;;;0.00;0.00;;;;;18.61;100.00;101531.72;5078719;27;46495;-70
2022/10/02 04:06:00;;;;;;;;;0.00;0.00;;;;;18.64;100.00;101534.34;5079207;27;45299;-70
2022/10/02 04:08:34;;;;;;;;;1.67;0.00;;;;;18.63;100.00;101537.91;5067962;27;45500;-70
2022/10/02 04:11:18;;;;;;;;;2.00;1.00;;;;;18.65;100.00;101533.47;5079297;27;45394;-70
2022/10/02 04:13:53;;;;;;;;;0.00;0.00;;;;;18.64;100.00;101534.34;5091812;27;46816;-70
2022/10/02 04:16:43;;;;;;;;;0.00;0.00;;;;;18.67;100.00;101534.31;5078333;27;45578;-70
2022/10/02 04:19:34;;;;;;;;;0.00;0.00;;;;;18.68;100.00;101545.03;5079256;27;45347;-69
2022/10/02 04:22:09;;;;;;;;;0.00;0.00;;;;;18.69;100.00;101538.75;5090309;27;45391;-70
2022/10/02 04:24:50;;;;;;;;;1.00;1.00;;;;;18.68;100.00;101537.00;5097270;27;45776;-71
2022/10/02 04:27:32;;;;;;;;;0.00;0.00;;;;;18.70;100.00;101537.88;5096364;27;45358;-70
2022/10/02 04:30:03;;;;;;;;;0.33;0.00;;;;;18.71;100.00;101536.97;5079322;27;45358;-71
2022/10/02 04:32:31;;;;;;;;;0.33;0.00;;;;;18.71;100.00;101542.31;5096587;27;45433;-70
2022/10/02 04:34:57;;;;;;;;;1.00;0.00;;;;;18.69;100.00;101544.09;5096972;27;45500;-71
2022/10/02 04:37:39;;;;;;;;;0.00;0.00;;;;;18.67;100.00;101532.53;5092997;27;69791;-70
2022/10/02 04:40:23;;;;;;;;;0.00;0.00;;;;;18.69;100.00;101544.09;5092442;27;45513;-70
2022/10/02 04:43:07;;;;;;;;;0.00;0.00;;;;;18.68;100.00;101549.50;5094207;27;45423;-70
2022/10/02 04:45:49;;;;;;;;;0.00;0.00;;;;;18.65;100.00;101534.34;5095685;27;46685;-70
2022/10/02 04:48:49;;;;;;;;;0.00;0.00;;;;;18.64;100.00;101539.69;5096866;27;45528;-70
2022/10/02 04:51:35;;;;;;;;;0.00;0.00;;;;;18.63;100.00;101537.91;5045795;27;45346;-70
2022/10/02 04:54:12;;;;;;;;;0.00;0.00;;;;;18.62;100.00;101542.38;5048077;27;45587;-70
2022/10/02 04:56:49;;;;;;;;;0.00;0.00;;;;;18.63;100.00;101546.81;5096468;27;45497;-70
2022/10/02 04:59:43;;;;;;;;;0.00;0.00;;;;;18.59;100.00;101542.44;5096491;27;45204;-69
2022/10/02 05:02:35;;;;;;;;;0.00;0.00;;;;;18.60;100.00;101546.88;5094029;27;45306;-70
2022/10/02 05:05:03;;;;;;;;;0.00;0.00;;;;;18.58;100.00;101546.88;5093471;27;45279;-70
2022/10/02 05:07:32;;;;;;;;;0.00;0.00;;;;;18.59;100.00;101553.13;5088560;27;46595;-71
2022/10/02 05:10:19;;;;;;;;;0.00;0.00;;;;;18.56;100.00;101540.66;5078010;27;45339;-71
2022/10/02 05:12:52;;;;;;;;;0.00;0.00;;;;;18.54;100.00;101544.28;5099917;27;45535;-70
2022/10/02 05:15:57;;;;;;;;;0.00;0.00;;;;;18.57;100.00;101552.25;5099318;27;45506;-71
2022/10/02 05:18:34;;;;;;;;;0.00;0.00;;;;;18.55;100.00;101560.28;5100157;27;45362;-70
2022/10/02 05:21:16;;;;;;;;;0.00;0.00;;;;;18.54;100.00;101550.50;5100011;27;45492;-70
2022/10/02 05:24:06;;;;;;;;;0.00;0.00;;;;;18.54;100.00;101555.84;5100376;27;45206;-70
2022/10/02 05:26:56;;;;;;;;;0.00;0.00;;;;;18.54;100.00;101558.53;5100220;27;45218;-70
2022/10/02 05:30:04;;;;;;;;;0.00;0.00;;;;;18.51;100.00;101552.31;5099142;27;46183;-70
2022/10/02 05:32:47;;;;;;;;;0.00;0.00;;;;;18.48;100.00;101552.34;5036050;28;45387;-70
2022/10/02 05:35:35;;;;;;;;;1.00;0.00;;;;;18.39;100.00;101553.31;5037046;28;45582;-70
2022/10/02 05:38:22;;;;;;;;;0.00;0.00;;;;;18.37;100.00;101564.91;5071180;27;45580;-70
2022/10/02 05:40:59;;;;;;;;;0.00;0.00;;;;;18.32;100.00;101560.53;5096842;27;46516;-70
2022/10/02 05:43:31;;;;;;;;;1.00;0.00;;;;;18.29;100.00;101563.22;5073124;27;45333;-70
2022/10/02 05:46:08;;;;;;;;;0.00;0.00;;;;;18.24;100.00;101567.72;5079276;27;45525;-70
2022/10/02 05:48:45;;;;;;;;;0.00;0.00;;;;;18.21;100.00;101570.41;5077756;28;45351;-69
2022/10/02 05:51:17;;;;;;;;;0.00;0.00;;;;;18.18;100.00;101574.91;5072959;28;47701;-69
2022/10/02 05:53:48;;;;;;;;;0.00;0.00;;;;;18.18;100.00;101575.78;5078933;27;45432;-70
2022/10/02 05:56:20;;;;;;;;;0.00;0.00;;;;;18.17;100.00;101575.81;5077942;28;45397;-70
2022/10/02 05:58:59;;;;;;;;;0.00;0.00;;;;;18.22;100.00;101582.00;5078827;27;45864;-70
2022/10/02 06:01:28;;;;;;;;;0.00;0.00;;;;;18.23;100.00;101582.00;5077654;28;46052;-70
2022/10/02 06:04:02;;;;;;;;;0.00;0.00;;;;;18.25;100.00;101587.31;5076881;28;45493;-70
2022/10/02 06:06:30;;;;;;;;;0.00;0.00;;;;;18.26;100.00;101587.28;5078929;28;45390;-71
2022/10/02 06:09:12;;;;;;;;;0.00;0.00;;;;;18.27;100.00;101588.22;5078424;27;45283;-70
2022/10/02 06:11:57;;;;;;;;;0.00;0.00;;;;;18.30;100.00;101585.50;5077772;28;46590;-70
2022/10/02 06:14:29;;;;;;;;;0.00;0.00;;;;;18.31;100.00;101585.47;5077945;28;45438;-69
2022/10/02 06:16:58;;;;;;;;;0.00;0.00;;;;;18.35;100.00;101577.44;5076986;28;45305;-70
2022/10/02 06:19:29;;;;;;;;;0.00;0.00;;;;;18.35;100.00;101585.44;5078987;28;45283;-70
2022/10/02 06:22:07;;;;;;;;;0.00;0.00;;;;;18.32;100.00;101589.03;5076872;28;46225;-70
2022/10/02 06:24:41;;;;;;;;;0.00;0.00;;;;;18.29;100.00;101584.59;5076334;28;45339;-69
2022/10/02 06:27:16;;;;;;;;;0.00;0.00;;;;;18.29;100.00;101575.69;5077131;28;45455;-70
2022/10/02 06:29:59;;;;;;;;;0.00;0.00;;;;;18.31;100.00;101579.22;5060551;28;45582;-70
2022/10/02 06:32:56;;;;;;;;;0.00;0.00;;;;;18.32;100.00;101573.91;5077649;28;46673;-70
2022/10/02 06:35:52;;;;;;;;;0.00;0.00;;;;;18.36;100.00;101573.84;5077111;28;45589;-70
2022/10/02 06:38:44;;;;;;;;;0.00;0.00;;;;;18.37;100.00;101576.50;5078390;28;45605;-70
2022/10/02 06:41:31;;;;;;;;;0.00;0.00;;;;;18.41;100.00;101580.03;5076913;28;45672;-70
2022/10/02 06:44:46;;;;;;;;;0.00;0.00;;;;;18.43;100.00;101580.91;5093379;27;46329;-70
2022/10/02 06:47:34;;;;;;;;;0.00;0.00;;;;;18.46;100.00;101583.56;5059308;27;45465;-70
2022/10/02 06:50:21;;;;;;;;;0.00;0.00;;;;;18.49;100.00;101572.84;5085290;27;45260;-70
2022/10/02 06:53:25;;;;;;;;;0.00;0.00;;;;;18.51;100.00;101585.28;5099257;27;45485;-70
2022/10/02 06:56:01;;;;;;;;;0.00;0.00;;;;;18.49;100.00;101579.09;5097734;27;45749;-70
2022/10/02 06:58:57;;;;;;;;;0.00;0.00;;;;;18.49;100.00;101572.84;5094502;27;45505;-70
2022/10/02 07:01:53;;;;;;;;;0.00;0.00;;;;;18.52;100.00;101581.72;5092670;27;45544;-69
2022/10/02 07:04:32;;;;;;;;;0.00;0.00;;;;;18.54;100.00;101587.06;5092163;27;45375;-71
2022/10/02 07:07:39;;;;;;;;;0.00;0.00;;;;;18.57;100.00;101587.00;5079748;27;46616;-69
2022/10/02 07:10:17;;;;;;;;;0.00;0.00;;;;;18.57;100.00;101581.66;5046081;27;45408;-70
2022/10/02 07:13:08;;;;;;;;;0.00;0.00;;;;;18.62;100.00;101582.50;5095586;27;45371;-69
2022/10/02 07:15:45;;;;;;;;;0.00;0.00;;;;;18.65;100.00;101577.13;5079886;27;45235;-70
2022/10/02 07:18:46;;;;;;;;;0.00;0.00;;;;;18.66;100.00;101573.56;5099182;27;45705;-71
2022/10/02 07:21:31;;;;;;;;;0.00;0.00;;;;;18.68;100.00;101574.44;5044263;27;45499;-70
2022/10/02 07:24:14;;;;;;;;;0.00;0.00;;;;;18.70;100.00;101575.34;5094665;27;45393;-70
2022/10/02 07:26:45;;;;;;;;;0.00;0.00;;;;;18.71;100.00;101577.09;5086408;27;45559;-70
2022/10/02 07:29:16;;;;;;;;;0.00;0.00;;;;;18.74;100.00;101586.88;5090147;27;45816;-70
2022/10/02 07:31:41;;;;;;;;;0.00;0.00;;;;;18.76;100.00;101583.28;5090969;27;45425;-70
2022/10/02 07:34:06;;;;;;;;;0.00;0.00;;;;;18.77;100.00;101597.56;5090727;27;45630;-70
2022/10/02 07:37:01;;;;;;;;;1.00;0.00;;;;;18.78;100.00;101583.28;5089285;27;45610;-70
2022/10/02 07:39:40;;;;;;;;;0.00;0.00;;;;;18.73;100.00;101575.28;5072969;27;46167;-70
2022/10/02 07:42:33;;;;;;;;;0.33;0.00;;;;;18.75;100.00;101594.00;5071715;28;45560;-70
2022/10/02 07:45:20;;;;;;;;;0.00;0.00;;;;;18.74;100.00;101590.44;5074978;28;45473;-70
2022/10/02 07:48:24;;;;;;;;;0.00;0.00;;;;;18.72;100.00;101589.56;5069721;28;45200;-70
2022/10/02 07:50:57;;;;;;;;;1.33;0.00;;;;;18.71;100.00;101592.28;5044405;28;47543;-70
2022/10/02 07:53:39;;;;;;;;;1.00;0.00;;;;;18.75;100.00;101591.31;5076507;27;45481;-70
2022/10/02 07:56:18;;;;;;;;;1.00;0.00;;;;;18.73;100.00;101594.00;5080678;27;45466;-71
2022/10/02 07:58:48;;;;;;;;;0.00;0.00;;;;;18.78;100.00;101599.31;5074440;28;45522;-71
2022/10/02 08:01:24;;;;;;;;;0.00;0.00;;;;;18.82;100.00;101599.28;5075133;27;46831;-71
2022/10/02 08:03:59;;;;;;;;;2.00;0.00;;;;;18.90;100.00;101606.31;5075726;28;45769;-70
2022/10/02 08:06:24;;;;;;;;;0.00;0.00;;;;;19.00;100.00;101610.69;5072428;28;45404;-71
2022/10/02 08:08:54;;;;;;;;;0.00;0.00;;;;;19.10;100.00;101607.00;5075023;27;60517;-71
2022/10/02 08:11:29;;;;;;;;;0.00;0.00;;;;;19.20;100.00;101607.78;5075873;28;47561;-71
2022/10/02 08:14:06;;;;;;;;;0.67;0.00;;;;;19.28;100.00;101609.47;5074948;28;45374;-71
2022/10/02 08:16:45;;;;;;;;;0.00;0.00;;;;;19.40;100.00;101615.56;5075523;28;45434;-70
2022/10/02 08:19:15;;;;;;;;;5.33;0.00;;;;;19.47;100.00;101626.16;5077745;27;45588;-71
2022/10/02 08:21:45;;;;;;;;;0.00;0.00;;;;;19.50;100.00;101623.47;5072357;28;46170;-71
2022/10/02 08:24:22;;;;;;;;;1.00;1.00;;;;;19.52;100.00;101626.09;5070783;28;45376;-71
2022/10/02 08:26:54;;;;;;;;;1.00;0.67;;;;;19.47;100.00;101622.59;5073353;28;46838;-71
2022/10/02 08:29:25;;;;;;;;;0.33;0.00;;;;;19.48;100.00;101633.28;5073101;28;45542;-71
2022/10/02 08:31:51;;;;;;;;;0.00;0.00;;;;;19.51;100.00;101638.63;5072753;28;45545;-70
2022/10/02 08:34:22;;;;;;;;;0.00;0.00;;;;;19.55;100.00;101621.59;5086476;27;45458;-72
2022/10/02 08:36:53;;;;;;;;;1.00;1.00;;;;;19.66;100.00;101628.66;5075278;27;45426;-70
2022/10/02 08:39:40;;;;;;;;;0.00;0.00;;;;;19.75;100.00;101626.69;5081309;27;45652;-71
2022/10/02 08:42:44;;;;;;;;;1.33;0.00;;;;;19.81;100.00;101631.97;5097084;27;45894;-72
2022/10/02 08:45:22;;;;;;;;;0.67;0.00;;;;;19.89;100.00;101632.75;5063649;27;45341;-71
2022/10/02 08:48:22;;;;;;;;;0.00;0.00;;;;;19.95;100.00;101636.25;5096911;27;45298;-71
2022/10/02 08:51:08;;;;;;;;;0.67;0.67;;;;;20.01;100.00;101620.97;5095940;27;46558;-72
2022/10/02 08:53:56;;;;;;;;;1.67;1.67;;;;;20.02;100.00;101625.41;5095076;27;45740;-71
2022/10/02 08:56:52;;;;;;;;;4.00;0.67;;;;;20.03;100.00;101642.41;5087404;27;45596;-72
2022/10/02 08:59:40;;;;;;;;;2.00;0.33;;;;;20.09;100.00;101642.31;5093493;27;45409;-72
2022/10/02 09:02:30;;;;;;;;;2.33;0.33;;;;;20.20;100.00;101636.78;5087605;27;46963;-71
2022/10/02 09:05:20;;;;;;;;;2.00;0.00;;;;;20.26;100.00;101634.00;5091546;27;46698;-71
2022/10/02 09:08:07;;;;;;;;;2.00;0.00;;;;;20.28;100.00;101643.75;5095885;27;45358;-72
2022/10/02 09:10:54;;;;;;;;;0.00;0.00;;;;;20.25;100.00;101641.16;5077135;27;45469;-71
2022/10/02 09:13:53;;;;;;;;;0.00;0.00;;;;;20.22;100.00;101641.19;5096011;27;45555;-73
2022/10/02 09:16:32;;;;;;;;;0.00;0.00;;;;;20.21;100.00;101623.34;5076682;27;46656;-73
2022/10/02 09:19:25;;;;;;;;;0.00;0.00;;;;;20.24;100.00;101634.03;5078248;27;45422;-72
2022/10/02 09:21:54;;;;;;;;;1.00;0.00;;;;;20.36;100.00;101625.75;5095972;27;45407;-73
2022/10/02 09:24:29;;;;;;;;;1.67;0.00;;;;;20.49;100.00;101622.91;5095152;27;45659;-73
2022/10/02 09:27:21;;;;;;;;;0.00;0.00;;;;;20.59;100.00;101621.81;5093000;27;46595;-73
2022/10/02 09:29:55;;;;;;;;;2.00;0.00;;;;;20.80;100.00;101618.75;5094889;27;45476;-72
2022/10/02 09:32:31;;;;;;;;;1.33;1.00;;;;;20.99;100.00;101618.41;5094936;27;45501;-71
2022/10/02 09:35:15;;;;;;;;;1.00;0.00;;;;;21.05;100.00;101634.41;5074843;27;45494;-72
2022/10/02 09:37:58;;;;;;;;;0.00;0.00;;;;;20.98;100.00;101620.19;5092454;27;46943;-71
2022/10/02 09:40:31;;;;;;;;;2.00;0.00;;;;;20.92;100.00;101633.72;5095498;27;45146;-73
2022/10/02 09:43:14;;;;;;;;;2.00;0.00;;;;;20.86;100.00;101618.63;5095732;27;45425;-71
2022/10/02 09:46:05;;;;;;;;;0.00;0.00;;;;;20.86;100.00;101615.94;5077474;27;46140;-71
2022/10/02 09:49:18;;;;;;;;;0.00;0.00;;;;;20.91;100.00;101616.75;5095283;27;46707;-72
2022/10/02 09:52:02;;;;;;;;;0.00;0.00;;;;;21.03;100.00;101620.09;5076936;27;45810;-73
2022/10/02 09:54:42;;;;;;;;;0.00;0.00;;;;;21.10;100.00;101624.44;5095186;27;45399;-73
2022/10/02 09:57:30;;;;;;;;;1.00;0.00;;;;;21.16;100.00;101627.00;5093950;27;45573;-73
2022/10/02 10:00:14;;;;;;;;;0.67;0.67;;;;;21.19;100.00;101633.19;5098536;27;46386;-71
2022/10/02 10:02:55;;;;;;;;;0.00;0.00;;;;;21.22;100.00;101631.38;5098290;27;45448;-73
2022/10/02 10:05:33;;;;;;;;;0.00;0.00;;;;;21.25;100.00;101632.16;5099054;27;45205;-72
2022/10/02 10:07:59;;;;;;;;;0.00;0.00;;;;;21.31;100.00;101633.91;5094729;27;45580;-72
2022/10/02 10:10:37;;;;;;;;;3.00;0.00;;;;;21.42;100.00;101632.75;5098631;27;45560;-74
2022/10/02 10:13:02;;;;;;;;;1.00;0.00;;;;;21.54;100.00;101631.59;5095472;27;45597;-71
2022/10/02 10:15:42;;;;;;;;;0.00;0.00;;;;;21.62;100.00;101632.31;5098732;27;46167;-72
2022/10/02 10:18:17;;;;;;;;;0.00;0.00;;;;;21.71;100.00;101621.38;5092770;27;45278;-73
2022/10/02 10:21:01;;;;;;;;;0.00;0.00;;;;;21.79;100.00;101623.00;5075947;27;45464;-72
2022/10/02 10:23:41;;;;;;;;;0.00;0.00;;;;;21.85;100.00;101620.19;5097547;27;45450;-72
2022/10/02 10:26:48;;;;;;;;;0.00;0.00;;;;;21.92;100.00;101620.00;5098901;27;45316;-72
2022/10/02 10:29:52;;;;;;;;;0.00;0.00;;;;;21.98;100.00;101621.66;5080880;27;45545;-73
2022/10/02 10:32:55;;;;;;;;;0.67;0.00;;;;;22.01;100.00;101621.59;5019940;27;46678;-71
2022/10/02 10:35:52;;;;;;;;;0.00;0.00;;;;;22.01;100.00;101624.28;5097784;27;45412;-72
2022/10/02 10:38:51;;;;;;;;;0.00;0.00;;;;;22.04;100.00;101618.81;5092058;27;45516;-71
2022/10/02 10:41:37;;;;;;;;;0.00;0.00;;;;;22.06;100.00;101621.47;5026046;27;45773;-71
2022/10/02 10:44:23;;;;;;;;;1.33;0.33;;;;;22.11;100.00;101630.34;5096758;27;45442;-73
2022/10/02 10:46:58;;;;;;;;;0.00;0.00;;;;;22.08;100.00;101630.38;5080389;27;45523;-71
2022/10/02 10:49:53;;;;;;;;;0.00;0.00;;;;;21.94;100.00;101622.63;5091445;27;45465;-71
2022/10/02 10:52:53;;;;;;;;;0.00;0.00;;;;;21.89;100.00;101629.91;5098587;27;45263;-72
2022/10/02 10:56:10;;;;;;;;;2.00;0.00;;;;;21.84;100.00;101621.06;5097637;27;46051;-71
2022/10/02 10:58:35;;;;;;;;;0.00;0.00;;;;;21.88;100.00;101618.28;5052535;27;45337;-71
2022/10/02 11:01:14;;;;;;;;;1.00;0.00;;;;;21.89;100.00;101622.78;5097996;27;45522;-72
2022/10/02 11:03:48;;;;;;;;;0.00;0.00;;;;;21.88;100.00;101629.03;5070713;28;45370;-71
2022/10/02 11:06:50;;;;;;;;;0.00;0.00;;;;;21.92;100.00;101619.09;5075482;27;46762;-71
2022/10/02 11:09:32;;;;;;;;;1.67;0.00;;;;;21.96;100.00;101613.63;5096699;27;45471;-71
2022/10/02 11:12:09;;;;;;;;;0.33;0.33;;;;;22.10;100.00;101612.41;5098691;27;45318;-72
2022/10/02 11:15:05;;;;;;;;;1.00;0.00;;;;;22.15;100.00;101627.53;5097697;27;45564;-72
2022/10/02 11:17:31;;;;;;;;;1.00;1.00;;;;;22.12;100.00;101618.66;5087882;27;46420;-71
2022/10/02 11:19:56;;;;;;;;;1.00;1.00;;;;;22.05;100.00;101627.75;5097573;27;45591;-71
2022/10/02 11:23:17;;;;;;;;;0.00;0.00;;;;;21.93;100.00;101624.44;5097911;27;45318;-72
2022/10/02 11:26:09;;;;;;;;;0.67;0.00;;;;;21.82;100.00;101622.94;5087350;27;45499;-71
2022/10/02 11:29:08;;;;;;;;;0.00;0.00;;;;;21.66;100.00;101631.34;5095533;27;45812;-71
2022/10/02 11:32:13;;;;;;;;;1.00;0.00;;;;;21.56;100.00;101645.88;5096627;27;45530;-73
2022/10/02 11:34:56;;;;;;;;;0.00;0.00;;;;;21.44;100.00;101635.41;5095299;27;45416;-72
2022/10/02 11:37:53;;;;;;;;;0.00;0.00;;;;;21.35;100.00;101636.47;5078718;27;45542;-72
2022/10/02 11:40:36;;;;;;;;;1.00;1.00;;;;;21.32;100.00;101647.31;5078876;27;46755;-71
2022/10/02 11:43:20;;;;;;;;;0.00;0.00;;;;;21.28;100.00;101648.25;5097553;27;45324;-72
2022/10/02 11:46:04;;;;;;;;;1.00;1.00;;;;;21.24;100.00;101673.38;5096955;27;45297;-71
2022/10/02 11:48:32;;;;;;;;;12.33;9.67;;;;;21.13;100.00;101675.41;5096747;27;45533;-72
2022/10/02 11:51:27;;;;;;;;;88.25;74.75;;;;;20.96;100.00;101675.72;5097438;27;46176;-72
2022/10/02 11:54:10;;;;;;;;;31.33;28.00;;;;;20.75;100.00;101679.69;5094730;27;45366;-72
2022/10/02 11:56:48;;;;;;;;;13.33;12.67;;;;;20.63;100.00;101670.06;5092823;27;45326;-73
2022/10/02 11:59:48;;;;;;;;;6.67;6.67;;;;;20.60;100.00;101662.03;5090570;27;45542;-71
2022/10/02 12:02:31;;;;;;;;;15.33;12.33;;;;;20.58;100.00;101665.69;5097178;27;46272;-71
2022/10/02 12:05:07;;;;;;;;;31.67;29.67;;;;;20.61;100.00;101668.28;5093884;27;45461;-71
2022/10/02 12:07:38;;;;;;;;;28.25;24.25;;;;;20.72;100.00;101666.34;5097116;27;45318;-70
2022/10/02 12:10:26;;;;;;;;;1.67;1.67;;;;;20.78;100.00;101668.91;5097157;27;45215;-70
2022/10/02 12:13:09;;;;;;;;;3.00;0.67;;;;;20.78;100.00;101663.53;5096914;27;46612;-72
2022/10/02 12:15:57;;;;;;;;;2.33;0.33;;;;;20.79;100.00;101664.41;5096183;27;45517;-71
2022/10/02 12:18:37;;;;;;;;;13.00;13.00;;;;;20.86;100.00;101656.22;5078256;27;45323;-71